sensor_id;sensor_type;location;lat;lon;timestamp;temperature;humidity
14061;DHT22;7105;43.616;1.434;2023-02-04T00:02:21;4.00;99.90
14061;DHT22;7105;43.616;1.434;2023-02-04T00:04:46;4.00;99.90
14061;DHT22;7105;43.616;1.434;2023-02-04T00:07:12;3.90;99.90
14061;DHT22;7105;43.616;1.434;2023-02-04T00:09:37;4.00;99.90
14061;DHT22;7105;43.616;1.434;2023-02-04T00:12:03;4.00;99.90
14061;DHT22;7105;43.616;1.434;2023-02-04T00:14:30;4.10;99.90
14061;DHT22;7105;43.616;1.434;2023-02-04T00:16:56;4.00;99.90
14061;DHT22;7105;43.616;1.434;2023-02-04T00:19:21;4.00;99.90
14061;DHT22;7105;43.616;1.434;2023-02-04T00:21:47;3.90;99.90
14061;DHT22;7105;43.616;1.434;2023-02-04T00:24:15;3.90;99.90
14061;DHT22;7105;43.616;1.434;2023-02-04T00:26:40;3.90;99.90
14061;DHT22;7105;43.616;1.434;2023-02-04T00:29:06;4.00;99.90
14061;DHT22;7105;43.616;1.434;2023-02-04T00:31:33;4.10;99.90
14061;DHT22;7105;43.616;1.434;2023-02-04T00:33:58;4.10;99.90
14061;DHT22;7105;43.616;1.434;2023-02-04T00:36:24;4.10;99.90
14061;DHT22;7105;43.616;1.434;2023-02-04T00:38:50;4.00;99.90
14061;DHT22;7105;43.616;1.434;2023-02-04T00:41:15;4.00;99.90
14061;DHT22;7105;43.616;1.434;2023-02-04T00:43:41;4.00;99.90
14061;DHT22;7105;43.616;1.434;2023-02-04T00:46:07;4.00;99.90
14061;DHT22;7105;43.616;1.434;2023-02-04T00:48:32;4.00;99.90
14061;DHT22;7105;43.616;1.434;2023-02-04T00:51:00;3.90;99.90
14061;DHT22;7105;43.616;1.434;2023-02-04T00:53:25;3.90;99.90
14061;DHT22;7105;43.616;1.434;2023-02-04T00:55:51;3.90;99.90
14061;DHT22;7105;43.616;1.434;2023-02-04T00:58:17;3.90;99.90
14061;DHT22;7105;43.616;1.434;2023-02-04T01:00:42;3.80;99.90
14061;DHT22;7105;43.616;1.434;2023-02-04T01:03:08;3.80;99.90
14061;DHT22;7105;43.616;1.434;2023-02-04T01:05:34;3.70;99.90
14061;DHT22;7105;43.616;1.434;2023-02-04T01:07:59;3.70;99.90
14061;DHT22;7105;43.616;1.434;2023-02-04T01:10:25;3.70;99.90
14061;DHT22;7105;43.616;1.434;2023-02-04T01:12:51;3.60;99.90
14061;DHT22;7105;43.616;1.434;2023-02-04T01:15:16;3.60;99.90
14061;DHT22;7105;43.616;1.434;2023-02-04T01:17:42;3.50;99.90
14061;DHT22;7105;43.616;1.434;2023-02-04T01:20:09;3.40;99.90
14061;DHT22;7105;43.616;1.434;2023-02-04T01:22:35;3.50;99.90
14061;DHT22;7105;43.616;1.434;2023-02-04T01:25:00;3.40;99.90
14061;DHT22;7105;43.616;1.434;2023-02-04T01:27:26;3.30;99.90
14061;DHT22;7105;43.616;1.434;2023-02-04T01:29:52;3.30;99.90
14061;DHT22;7105;43.616;1.434;2023-02-04T01:32:17;3.30;99.90
14061;DHT22;7105;43.616;1.434;2023-02-04T01:34:43;3.30;99.90
14061;DHT22;7105;43.616;1.434;2023-02-04T01:37:09;3.30;99.90
14061;DHT22;7105;43.616;1.434;2023-02-04T01:39:34;3.20;99.90
14061;DHT22;7105;43.616;1.434;2023-02-04T01:42:02;3.20;99.90
14061;DHT22;7105;43.616;1.434;2023-02-04T01:44:28;3.20;99.90
14061;DHT22;7105;43.616;1.434;2023-02-04T01:46:54;3.20;99.90
14061;DHT22;7105;43.616;1.434;2023-02-04T01:49:20;3.20;99.90
14061;DHT22;7105;43.616;1.434;2023-02-04T01:51:46;3.20;99.90
14061;DHT22;7105;43.616;1.434;2023-02-04T01:54:13;3.20;99.90
14061;DHT22;7105;43.616;1.434;2023-02-04T01:56:45;3.20;99.90
14061;DHT22;7105;43.616;1.434;2023-02-04T01:59:14;3.20;99.90
14061;DHT22;7105;43.616;1.434;2023-02-04T02:01:43;3.20;99.90
14061;DHT22;7105;43.616;1.434;2023-02-04T02:04:11;3.10;99.90
14061;DHT22;7105;43.616;1.434;2023-02-04T02:06:39;3.10;99.90
14061;DHT22;7105;43.616;1.434;2023-02-04T02:09:06;3.10;99.90
14061;DHT22;7105;43.616;1.434;2023-02-04T02:11:32;3.10;99.90
14061;DHT22;7105;43.616;1.434;2023-02-04T02:13:59;3.10;99.90
14061;DHT22;7105;43.616;1.434;2023-02-04T02:16:25;3.10;99.90
14061;DHT22;7105;43.616;1.434;2023-02-04T02:18:51;3.10;99.90
14061;DHT22;7105;43.616;1.434;2023-02-04T02:21:52;3.10;99.90
14061;DHT22;7105;43.616;1.434;2023-02-04T02:24:47;3.00;99.90
14061;DHT22;7105;43.616;1.434;2023-02-04T02:27:12;2.90;99.90
14061;DHT22;7105;43.616;1.434;2023-02-04T02:29:39;3.00;99.90
14061;DHT22;7105;43.616;1.434;2023-02-04T02:32:07;2.90;99.90
14061;DHT22;7105;43.616;1.434;2023-02-04T02:34:33;2.90;99.90
14061;DHT22;7105;43.616;1.434;2023-02-04T02:37:00;2.90;99.90
14061;DHT22;7105;43.616;1.434;2023-02-04T02:39:27;2.90;99.90
14061;DHT22;7105;43.616;1.434;2023-02-04T02:41:54;2.90;99.90
14061;DHT22;7105;43.616;1.434;2023-02-04T02:44:21;2.90;99.90
14061;DHT22;7105;43.616;1.434;2023-02-04T02:46:48;2.90;99.90
14061;DHT22;7105;43.616;1.434;2023-02-04T02:49:16;2.80;99.90
14061;DHT22;7105;43.616;1.434;2023-02-04T02:51:43;2.70;99.90
14061;DHT22;7105;43.616;1.434;2023-02-04T02:56:43;2.70;99.90
14061;DHT22;7105;43.616;1.434;2023-02-04T02:59:13;2.70;99.90
14061;DHT22;7105;43.616;1.434;2023-02-04T03:01:39;2.70;99.90
14061;DHT22;7105;43.616;1.434;2023-02-04T03:04:05;2.60;99.90
14061;DHT22;7105;43.616;1.434;2023-02-04T03:06:31;2.60;99.90
14061;DHT22;7105;43.616;1.434;2023-02-04T03:08:56;2.60;99.90
14061;DHT22;7105;43.616;1.434;2023-02-04T03:11:23;2.60;99.90
14061;DHT22;7105;43.616;1.434;2023-02-04T03:13:51;2.50;99.90
14061;DHT22;7105;43.616;1.434;2023-02-04T03:16:17;2.50;99.90
14061;DHT22;7105;43.616;1.434;2023-02-04T03:18:43;2.50;99.90
14061;DHT22;7105;43.616;1.434;2023-02-04T03:21:09;2.50;99.90
14061;DHT22;7105;43.616;1.434;2023-02-04T03:23:35;2.50;99.90
14061;DHT22;7105;43.616;1.434;2023-02-04T03:26:02;2.40;99.90
14061;DHT22;7105;43.616;1.434;2023-02-04T03:28:29;2.40;99.90
14061;DHT22;7105;43.616;1.434;2023-02-04T03:30:56;2.40;99.90
14061;DHT22;7105;43.616;1.434;2023-02-04T03:33:26;2.40;99.90
14061;DHT22;7105;43.616;1.434;2023-02-04T03:35:58;2.40;99.90
14061;DHT22;7105;43.616;1.434;2023-02-04T03:38:24;2.50;99.90
14061;DHT22;7105;43.616;1.434;2023-02-04T03:40:50;2.30;99.90
14061;DHT22;7105;43.616;1.434;2023-02-04T03:43:15;2.40;99.90
14061;DHT22;7105;43.616;1.434;2023-02-04T03:45:41;2.40;99.90
14061;DHT22;7105;43.616;1.434;2023-02-04T03:48:07;2.40;99.90
14061;DHT22;7105;43.616;1.434;2023-02-04T03:50:33;2.30;99.90
14061;DHT22;7105;43.616;1.434;2023-02-04T03:52:58;2.40;99.90
14061;DHT22;7105;43.616;1.434;2023-02-04T03:55:24;2.40;99.90
14061;DHT22;7105;43.616;1.434;2023-02-04T03:57:51;2.40;99.90
14061;DHT22;7105;43.616;1.434;2023-02-04T04:00:17;2.40;99.90
14061;DHT22;7105;43.616;1.434;2023-02-04T04:02:47;2.40;99.90
14061;DHT22;7105;43.616;1.434;2023-02-04T04:05:13;2.30;99.90
14061;DHT22;7105;43.616;1.434;2023-02-04T04:07:38;2.20;99.90
14061;DHT22;7105;43.616;1.434;2023-02-04T04:10:04;2.30;99.90
14061;DHT22;7105;43.616;1.434;2023-02-04T04:12:30;2.30;99.90
14061;DHT22;7105;43.616;1.434;2023-02-04T04:14:56;2.40;99.90
14061;DHT22;7105;43.616;1.434;2023-02-04T04:17:22;2.30;99.90
14061;DHT22;7105;43.616;1.434;2023-02-04T04:19:48;2.30;99.90
14061;DHT22;7105;43.616;1.434;2023-02-04T04:22:14;2.30;99.90
14061;DHT22;7105;43.616;1.434;2023-02-04T04:24:42;2.20;99.90
14061;DHT22;7105;43.616;1.434;2023-02-04T04:27:08;2.20;99.90
14061;DHT22;7105;43.616;1.434;2023-02-04T04:29:34;2.30;99.90
14061;DHT22;7105;43.616;1.434;2023-02-04T04:31:59;2.30;99.90
14061;DHT22;7105;43.616;1.434;2023-02-04T04:34:25;2.30;99.90
14061;DHT22;7105;43.616;1.434;2023-02-04T04:36:51;2.30;99.90
14061;DHT22;7105;43.616;1.434;2023-02-04T04:39:16;2.30;99.90
14061;DHT22;7105;43.616;1.434;2023-02-04T04:41:42;2.30;99.90
14061;DHT22;7105;43.616;1.434;2023-02-04T04:44:08;2.30;99.90
14061;DHT22;7105;43.616;1.434;2023-02-04T04:46:33;2.30;99.90
14061;DHT22;7105;43.616;1.434;2023-02-04T04:49:00;2.40;99.90
14061;DHT22;7105;43.616;1.434;2023-02-04T04:51:26;2.40;99.90
14061;DHT22;7105;43.616;1.434;2023-02-04T04:53:56;2.20;99.90
14061;DHT22;7105;43.616;1.434;2023-02-04T04:56:21;2.10;99.90
14061;DHT22;7105;43.616;1.434;2023-02-04T04:58:47;2.00;99.90
14061;DHT22;7105;43.616;1.434;2023-02-04T05:01:13;1.90;99.90
14061;DHT22;7105;43.616;1.434;2023-02-04T05:03:38;1.90;99.90
14061;DHT22;7105;43.616;1.434;2023-02-04T05:06:04;1.90;99.90
14061;DHT22;7105;43.616;1.434;2023-02-04T05:08:30;1.80;99.90
14061;DHT22;7105;43.616;1.434;2023-02-04T05:10:55;1.80;99.90
14061;DHT22;7105;43.616;1.434;2023-02-04T05:13:21;1.70;99.90
14061;DHT22;7105;43.616;1.434;2023-02-04T05:15:49;1.70;99.90
14061;DHT22;7105;43.616;1.434;2023-02-04T05:18:15;1.70;99.90
14061;DHT22;7105;43.616;1.434;2023-02-04T05:20:40;1.60;99.90
14061;DHT22;7105;43.616;1.434;2023-02-04T05:23:06;1.40;99.90
14061;DHT22;7105;43.616;1.434;2023-02-04T05:25:32;1.40;99.90
14061;DHT22;7105;43.616;1.434;2023-02-04T05:27:59;1.30;99.90
14061;DHT22;7105;43.616;1.434;2023-02-04T05:30:26;1.40;99.90
14061;DHT22;7105;43.616;1.434;2023-02-04T05:32:52;1.30;99.90
14061;DHT22;7105;43.616;1.434;2023-02-04T05:35:18;1.30;99.90
14061;DHT22;7105;43.616;1.434;2023-02-04T05:37:43;1.40;99.90
14061;DHT22;7105;43.616;1.434;2023-02-04T05:40:09;1.30;99.90
14061;DHT22;7105;43.616;1.434;2023-02-04T05:42:35;1.30;99.90
14061;DHT22;7105;43.616;1.434;2023-02-04T05:45:01;1.30;99.90
14061;DHT22;7105;43.616;1.434;2023-02-04T05:47:27;1.30;99.90
14061;DHT22;7105;43.616;1.434;2023-02-04T05:49:53;1.20;99.90
14061;DHT22;7105;43.616;1.434;2023-02-04T05:52:18;1.10;99.90
14061;DHT22;7105;43.616;1.434;2023-02-04T05:54:46;1.20;99.90
14061;DHT22;7105;43.616;1.434;2023-02-04T05:57:13;1.20;99.90
14061;DHT22;7105;43.616;1.434;2023-02-04T05:59:39;1.20;99.90
14061;DHT22;7105;43.616;1.434;2023-02-04T06:02:04;1.20;99.90
14061;DHT22;7105;43.616;1.434;2023-02-04T06:04:30;1.30;99.90
14061;DHT22;7105;43.616;1.434;2023-02-04T06:06:56;1.30;99.90
14061;DHT22;7105;43.616;1.434;2023-02-04T06:09:22;1.40;99.90
14061;DHT22;7105;43.616;1.434;2023-02-04T06:11:48;1.30;99.90
14061;DHT22;7105;43.616;1.434;2023-02-04T06:14:13;1.20;99.90
14061;DHT22;7105;43.616;1.434;2023-02-04T06:16:39;1.20;99.90
14061;DHT22;7105;43.616;1.434;2023-02-04T06:19:05;1.20;99.90
14061;DHT22;7105;43.616;1.434;2023-02-04T06:21:30;1.10;99.90
14061;DHT22;7105;43.616;1.434;2023-02-04T06:23:56;1.20;99.90
14061;DHT22;7105;43.616;1.434;2023-02-04T06:26:22;1.30;99.90
14061;DHT22;7105;43.616;1.434;2023-02-04T06:28:47;1.30;99.90
14061;DHT22;7105;43.616;1.434;2023-02-04T06:31:14;1.50;99.90
14061;DHT22;7105;43.616;1.434;2023-02-04T06:33:40;1.50;99.90
14061;DHT22;7105;43.616;1.434;2023-02-04T06:36:06;1.50;99.90
14061;DHT22;7105;43.616;1.434;2023-02-04T06:38:31;1.40;99.90
14061;DHT22;7105;43.616;1.434;2023-02-04T06:40:57;1.50;99.90
14061;DHT22;7105;43.616;1.434;2023-02-04T06:43:23;1.40;99.90
14061;DHT22;7105;43.616;1.434;2023-02-04T06:45:50;1.40;99.90
14061;DHT22;7105;43.616;1.434;2023-02-04T06:48:16;1.40;99.90
14061;DHT22;7105;43.616;1.434;2023-02-04T06:50:42;1.50;99.90
14061;DHT22;7105;43.616;1.434;2023-02-04T06:53:08;1.50;99.90
14061;DHT22;7105;43.616;1.434;2023-02-04T06:55:33;1.50;99.90
14061;DHT22;7105;43.616;1.434;2023-02-04T06:57:59;1.40;99.90
14061;DHT22;7105;43.616;1.434;2023-02-04T07:00:25;1.40;99.90
14061;DHT22;7105;43.616;1.434;2023-02-04T07:02:51;1.40;99.90
14061;DHT22;7105;43.616;1.434;2023-02-04T07:05:17;1.60;99.90
14061;DHT22;7105;43.616;1.434;2023-02-04T07:07:43;1.70;99.90
14061;DHT22;7105;43.616;1.434;2023-02-04T07:10:09;1.70;99.90
14061;DHT22;7105;43.616;1.434;2023-02-04T07:12:34;1.60;99.90
14061;DHT22;7105;43.616;1.434;2023-02-04T07:15:00;1.50;99.90
14061;DHT22;7105;43.616;1.434;2023-02-04T07:17:26;1.50;99.90
14061;DHT22;7105;43.616;1.434;2023-02-04T07:19:51;1.50;99.90
14061;DHT22;7105;43.616;1.434;2023-02-04T07:22:17;1.40;99.90
14061;DHT22;7105;43.616;1.434;2023-02-04T07:24:43;1.30;99.90
14061;DHT22;7105;43.616;1.434;2023-02-04T07:27:09;1.30;99.90
14061;DHT22;7105;43.616;1.434;2023-02-04T07:29:34;1.50;99.90
14061;DHT22;7105;43.616;1.434;2023-02-04T07:32:00;1.70;99.90
14061;DHT22;7105;43.616;1.434;2023-02-04T07:34:26;1.60;99.90
14061;DHT22;7105;43.616;1.434;2023-02-04T07:36:51;1.50;99.90
14061;DHT22;7105;43.616;1.434;2023-02-04T07:39:17;1.70;99.90
14061;DHT22;7105;43.616;1.434;2023-02-04T07:41:43;1.60;99.90
14061;DHT22;7105;43.616;1.434;2023-02-04T07:44:08;1.70;99.90
14061;DHT22;7105;43.616;1.434;2023-02-04T07:46:34;1.70;99.90
14061;DHT22;7105;43.616;1.434;2023-02-04T07:49:00;1.90;99.90
14061;DHT22;7105;43.616;1.434;2023-02-04T07:51:25;2.00;99.90
14061;DHT22;7105;43.616;1.434;2023-02-04T07:53:51;1.80;99.90
14061;DHT22;7105;43.616;1.434;2023-02-04T07:56:17;1.90;99.90
14061;DHT22;7105;43.616;1.434;2023-02-04T07:58:42;2.40;99.90
14061;DHT22;7105;43.616;1.434;2023-02-04T08:01:08;2.00;99.90
14061;DHT22;7105;43.616;1.434;2023-02-04T08:03:33;2.00;99.90
14061;DHT22;7105;43.616;1.434;2023-02-04T08:05:59;1.90;99.90
14061;DHT22;7105;43.616;1.434;2023-02-04T08:08:25;1.80;99.90
14061;DHT22;7105;43.616;1.434;2023-02-04T08:10:51;2.00;99.90
14061;DHT22;7105;43.616;1.434;2023-02-04T08:13:18;2.00;99.90
14061;DHT22;7105;43.616;1.434;2023-02-04T08:15:43;1.90;99.90
14061;DHT22;7105;43.616;1.434;2023-02-04T08:18:09;2.00;99.90
14061;DHT22;7105;43.616;1.434;2023-02-04T08:20:35;1.90;99.90
14061;DHT22;7105;43.616;1.434;2023-02-04T08:23:00;2.00;99.90
14061;DHT22;7105;43.616;1.434;2023-02-04T08:25:26;2.70;99.90
14061;DHT22;7105;43.616;1.434;2023-02-04T08:27:53;3.40;99.90
14061;DHT22;7105;43.616;1.434;2023-02-04T08:30:19;6.40;99.90
14061;DHT22;7105;43.616;1.434;2023-02-04T08:32:44;7.60;99.90
14061;DHT22;7105;43.616;1.434;2023-02-04T08:35:11;7.80;99.90
14061;DHT22;7105;43.616;1.434;2023-02-04T08:37:37;7.80;99.90
14061;DHT22;7105;43.616;1.434;2023-02-04T08:40:03;8.90;99.90
14061;DHT22;7105;43.616;1.434;2023-02-04T08:42:29;11.70;99.90
14061;DHT22;7105;43.616;1.434;2023-02-04T08:44:54;11.10;99.90
14061;DHT22;7105;43.616;1.434;2023-02-04T08:47:20;8.90;99.90
14061;DHT22;7105;43.616;1.434;2023-02-04T08:49:46;8.60;99.90
14061;DHT22;7105;43.616;1.434;2023-02-04T08:52:11;9.00;99.90
14061;DHT22;7105;43.616;1.434;2023-02-04T08:54:37;9.10;99.90
14061;DHT22;7105;43.616;1.434;2023-02-04T08:57:03;11.00;99.90
14061;DHT22;7105;43.616;1.434;2023-02-04T08:59:28;12.40;99.90
14061;DHT22;7105;43.616;1.434;2023-02-04T09:01:54;10.30;99.90
14061;DHT22;7105;43.616;1.434;2023-02-04T09:04:21;10.20;99.90
14061;DHT22;7105;43.616;1.434;2023-02-04T09:06:48;10.10;99.90
14061;DHT22;7105;43.616;1.434;2023-02-04T09:09:14;9.70;99.90
14061;DHT22;7105;43.616;1.434;2023-02-04T09:11:40;11.80;99.90
14061;DHT22;7105;43.616;1.434;2023-02-04T09:14:06;14.20;99.90
14061;DHT22;7105;43.616;1.434;2023-02-04T09:16:32;11.20;99.90
14061;DHT22;7105;43.616;1.434;2023-02-04T09:18:58;10.70;99.90
14061;DHT22;7105;43.616;1.434;2023-02-04T09:21:24;10.30;99.90
14061;DHT22;7105;43.616;1.434;2023-02-04T09:23:50;10.50;99.90
14061;DHT22;7105;43.616;1.434;2023-02-04T09:26:16;12.40;99.90
14061;DHT22;7105;43.616;1.434;2023-02-04T09:28:42;13.50;99.90
14061;DHT22;7105;43.616;1.434;2023-02-04T09:31:09;11.20;99.90
14061;DHT22;7105;43.616;1.434;2023-02-04T09:33:35;10.40;99.90
14061;DHT22;7105;43.616;1.434;2023-02-04T09:36:01;10.70;99.90
14061;DHT22;7105;43.616;1.434;2023-02-04T09:38:27;9.80;99.90
14061;DHT22;7105;43.616;1.434;2023-02-04T09:40:56;7.50;99.90
14061;DHT22;7105;43.616;1.434;2023-02-04T09:43:25;6.10;99.90
14061;DHT22;7105;43.616;1.434;2023-02-04T09:45:52;5.30;99.90
14061;DHT22;7105;43.616;1.434;2023-02-04T09:48:18;5.40;99.90
14061;DHT22;7105;43.616;1.434;2023-02-04T09:50:46;5.40;99.90
14061;DHT22;7105;43.616;1.434;2023-02-04T09:53:14;5.90;99.90
14061;DHT22;7105;43.616;1.434;2023-02-04T09:55:44;6.20;99.90
14061;DHT22;7105;43.616;1.434;2023-02-04T09:58:13;5.90;99.90
14061;DHT22;7105;43.616;1.434;2023-02-04T10:00:40;5.50;99.90
14061;DHT22;7105;43.616;1.434;2023-02-04T10:03:16;5.30;99.90
14061;DHT22;7105;43.616;1.434;2023-02-04T10:05:46;6.00;99.90
14061;DHT22;7105;43.616;1.434;2023-02-04T10:08:23;6.20;99.90
14061;DHT22;7105;43.616;1.434;2023-02-04T10:10:52;6.10;99.90
14061;DHT22;7105;43.616;1.434;2023-02-04T10:13:30;5.80;99.90
14061;DHT22;7105;43.616;1.434;2023-02-04T10:15:57;5.70;99.90
14061;DHT22;7105;43.616;1.434;2023-02-04T10:18:31;5.70;99.90
14061;DHT22;7105;43.616;1.434;2023-02-04T10:21:23;6.00;99.90
14061;DHT22;7105;43.616;1.434;2023-02-04T10:23:52;5.90;99.90
14061;DHT22;7105;43.616;1.434;2023-02-04T10:26:21;5.80;99.90
14061;DHT22;7105;43.616;1.434;2023-02-04T10:28:47;5.60;99.90
14061;DHT22;7105;43.616;1.434;2023-02-04T10:31:33;5.80;99.90
14061;DHT22;7105;43.616;1.434;2023-02-04T10:34:34;5.90;99.90
14061;DHT22;7105;43.616;1.434;2023-02-04T10:37:20;6.20;99.90
14061;DHT22;7105;43.616;1.434;2023-02-04T10:39:46;5.90;99.90
14061;DHT22;7105;43.616;1.434;2023-02-04T10:42:46;5.80;99.90
14061;DHT22;7105;43.616;1.434;2023-02-04T10:45:29;5.90;99.90
14061;DHT22;7105;43.616;1.434;2023-02-04T10:47:56;6.40;99.90
14061;DHT22;7105;43.616;1.434;2023-02-04T10:50:26;6.20;99.90
14061;DHT22;7105;43.616;1.434;2023-02-04T10:52:56;5.90;99.90
14061;DHT22;7105;43.616;1.434;2023-02-04T10:55:43;6.00;99.90
14061;DHT22;7105;43.616;1.434;2023-02-04T10:58:17;6.20;99.90
14061;DHT22;7105;43.616;1.434;2023-02-04T11:00:44;6.20;99.90
14061;DHT22;7105;43.616;1.434;2023-02-04T11:03:11;6.40;99.90
14061;DHT22;7105;43.616;1.434;2023-02-04T11:05:40;6.30;99.90
14061;DHT22;7105;43.616;1.434;2023-02-04T11:11:04;6.60;99.90
14061;DHT22;7105;43.616;1.434;2023-02-04T11:16:12;6.80;99.90
14061;DHT22;7105;43.616;1.434;2023-02-04T11:18:52;6.50;99.90
14061;DHT22;7105;43.616;1.434;2023-02-04T11:23:50;6.50;99.90
14061;DHT22;7105;43.616;1.434;2023-02-04T11:26:35;6.80;99.90
14061;DHT22;7105;43.616;1.434;2023-02-04T11:39:47;7.00;99.90
14061;DHT22;7105;43.616;1.434;2023-02-04T11:47:17;6.70;99.90
14061;DHT22;7105;43.616;1.434;2023-02-04T11:49:45;6.90;99.90
14061;DHT22;7105;43.616;1.434;2023-02-04T11:52:13;7.00;99.90
14061;DHT22;7105;43.616;1.434;2023-02-04T11:54:38;7.10;99.90
14061;DHT22;7105;43.616;1.434;2023-02-04T11:57:04;7.10;99.90
14061;DHT22;7105;43.616;1.434;2023-02-04T11:59:31;7.10;99.90
14061;DHT22;7105;43.616;1.434;2023-02-04T12:04:50;7.70;99.90
14061;DHT22;7105;43.616;1.434;2023-02-04T12:07:22;7.60;99.90
14061;DHT22;7105;43.616;1.434;2023-02-04T12:09:48;7.30;99.90
14061;DHT22;7105;43.616;1.434;2023-02-04T12:12:28;7.50;99.90
14061;DHT22;7105;43.616;1.434;2023-02-04T12:15:03;7.50;99.90
14061;DHT22;7105;43.616;1.434;2023-02-04T12:17:33;7.70;99.90
14061;DHT22;7105;43.616;1.434;2023-02-04T12:20:00;7.80;99.90
14061;DHT22;7105;43.616;1.434;2023-02-04T12:22:26;7.60;99.90
14061;DHT22;7105;43.616;1.434;2023-02-04T12:24:51;7.60;99.90
14061;DHT22;7105;43.616;1.434;2023-02-04T12:27:17;8.00;99.90
14061;DHT22;7105;43.616;1.434;2023-02-04T12:29:43;8.10;99.90
14061;DHT22;7105;43.616;1.434;2023-02-04T12:32:09;8.10;99.90
14061;DHT22;7105;43.616;1.434;2023-02-04T12:34:35;8.00;99.90
14061;DHT22;7105;43.616;1.434;2023-02-04T12:37:00;8.00;99.90
14061;DHT22;7105;43.616;1.434;2023-02-04T12:39:26;8.30;99.90
14061;DHT22;7105;43.616;1.434;2023-02-04T12:41:53;8.50;99.90
14061;DHT22;7105;43.616;1.434;2023-02-04T12:44:19;8.50;99.90
14061;DHT22;7105;43.616;1.434;2023-02-04T12:46:45;8.30;99.90
14061;DHT22;7105;43.616;1.434;2023-02-04T12:49:11;8.30;99.90
14061;DHT22;7105;43.616;1.434;2023-02-04T12:51:36;8.30;99.90
14061;DHT22;7105;43.616;1.434;2023-02-04T12:54:02;8.60;99.90
14061;DHT22;7105;43.616;1.434;2023-02-04T12:56:29;8.80;99.90
14061;DHT22;7105;43.616;1.434;2023-02-04T12:58:55;8.70;99.90
14061;DHT22;7105;43.616;1.434;2023-02-04T13:01:20;8.60;99.90
14061;DHT22;7105;43.616;1.434;2023-02-04T13:03:46;8.70;99.90
14061;DHT22;7105;43.616;1.434;2023-02-04T13:06:12;8.70;99.90
14061;DHT22;7105;43.616;1.434;2023-02-04T13:08:37;8.70;99.90
14061;DHT22;7105;43.616;1.434;2023-02-04T13:11:03;8.70;99.90
14061;DHT22;7105;43.616;1.434;2023-02-04T13:13:29;8.80;99.90
14061;DHT22;7105;43.616;1.434;2023-02-04T13:15:54;8.70;99.90
14061;DHT22;7105;43.616;1.434;2023-02-04T13:18:20;9.00;99.90
14061;DHT22;7105;43.616;1.434;2023-02-04T13:20:45;9.00;99.90
14061;DHT22;7105;43.616;1.434;2023-02-04T13:23:12;8.90;99.90
14061;DHT22;7105;43.616;1.434;2023-02-04T13:25:38;8.70;99.90
14061;DHT22;7105;43.616;1.434;2023-02-04T13:28:04;9.00;99.90
14061;DHT22;7105;43.616;1.434;2023-02-04T13:30:29;9.20;99.90
14061;DHT22;7105;43.616;1.434;2023-02-04T13:32:55;9.30;99.90
14061;DHT22;7105;43.616;1.434;2023-02-04T13:35:20;9.10;99.90
14061;DHT22;7105;43.616;1.434;2023-02-04T13:37:46;9.10;99.90
14061;DHT22;7105;43.616;1.434;2023-02-04T13:40:12;9.20;99.90
14061;DHT22;7105;43.616;1.434;2023-02-04T13:42:38;9.30;99.90
14061;DHT22;7105;43.616;1.434;2023-02-04T13:45:04;9.20;99.90
14061;DHT22;7105;43.616;1.434;2023-02-04T13:47:32;9.20;99.90
14061;DHT22;7105;43.616;1.434;2023-02-04T13:49:57;9.10;99.90
14061;DHT22;7105;43.616;1.434;2023-02-04T13:52:23;9.40;99.90
14061;DHT22;7105;43.616;1.434;2023-02-04T13:54:48;9.60;99.90
14061;DHT22;7105;43.616;1.434;2023-02-04T13:57:14;9.50;99.90
14061;DHT22;7105;43.616;1.434;2023-02-04T13:59:41;9.20;99.90
14061;DHT22;7105;43.616;1.434;2023-02-04T14:02:09;9.40;99.90
14061;DHT22;7105;43.616;1.434;2023-02-04T14:04:35;9.50;99.90
14061;DHT22;7105;43.616;1.434;2023-02-04T14:07:00;9.60;99.90
14061;DHT22;7105;43.616;1.434;2023-02-04T14:09:26;9.50;99.90
14061;DHT22;7105;43.616;1.434;2023-02-04T14:11:52;9.40;99.90
14061;DHT22;7105;43.616;1.434;2023-02-04T14:14:17;9.50;99.90
14061;DHT22;7105;43.616;1.434;2023-02-04T14:16:43;9.60;99.90
14061;DHT22;7105;43.616;1.434;2023-02-04T14:19:09;9.70;99.90
14061;DHT22;7105;43.616;1.434;2023-02-04T14:21:34;9.60;99.90
14061;DHT22;7105;43.616;1.434;2023-02-04T14:24:00;9.30;99.90
14061;DHT22;7105;43.616;1.434;2023-02-04T14:26:26;9.30;99.90
14061;DHT22;7105;43.616;1.434;2023-02-04T14:28:52;9.60;99.90
14061;DHT22;7105;43.616;1.434;2023-02-04T14:31:17;9.90;99.90
14061;DHT22;7105;43.616;1.434;2023-02-04T14:33:43;9.80;99.90
14061;DHT22;7105;43.616;1.434;2023-02-04T14:36:09;9.60;99.90
14061;DHT22;7105;43.616;1.434;2023-02-04T14:38:34;9.60;99.90
14061;DHT22;7105;43.616;1.434;2023-02-04T14:41:02;9.80;99.90
14061;DHT22;7105;43.616;1.434;2023-02-04T14:43:28;9.80;99.90
14061;DHT22;7105;43.616;1.434;2023-02-04T14:45:54;9.90;99.90
14061;DHT22;7105;43.616;1.434;2023-02-04T14:48:20;9.60;99.90
14061;DHT22;7105;43.616;1.434;2023-02-04T14:50:45;9.60;99.90
14061;DHT22;7105;43.616;1.434;2023-02-04T14:53:11;9.70;99.90
14061;DHT22;7105;43.616;1.434;2023-02-04T14:55:38;9.80;99.90
14061;DHT22;7105;43.616;1.434;2023-02-04T14:58:03;9.90;99.90
14061;DHT22;7105;43.616;1.434;2023-02-04T15:00:29;9.70;99.90
14061;DHT22;7105;43.616;1.434;2023-02-04T15:02:55;9.50;99.90
14061;DHT22;7105;43.616;1.434;2023-02-04T15:05:21;9.60;99.90
14061;DHT22;7105;43.616;1.434;2023-02-04T15:07:48;9.90;99.90
14061;DHT22;7105;43.616;1.434;2023-02-04T15:10:14;9.80;99.90
14061;DHT22;7105;43.616;1.434;2023-02-04T15:12:39;9.70;99.90
14061;DHT22;7105;43.616;1.434;2023-02-04T15:15:05;9.50;99.90
14061;DHT22;7105;43.616;1.434;2023-02-04T15:17:31;9.80;99.90
14061;DHT22;7105;43.616;1.434;2023-02-04T15:19:56;9.80;99.90
14061;DHT22;7105;43.616;1.434;2023-02-04T15:22:22;10.10;99.90
14061;DHT22;7105;43.616;1.434;2023-02-04T15:24:48;9.70;99.90
14061;DHT22;7105;43.616;1.434;2023-02-04T15:27:14;9.50;99.90
14061;DHT22;7105;43.616;1.434;2023-02-04T15:29:39;9.60;99.90
14061;DHT22;7105;43.616;1.434;2023-02-04T15:32:05;9.90;99.90
14061;DHT22;7105;43.616;1.434;2023-02-04T15:34:31;9.80;99.90
14061;DHT22;7105;43.616;1.434;2023-02-04T15:36:56;9.60;99.90
14061;DHT22;7105;43.616;1.434;2023-02-04T15:39:22;9.50;99.90
14061;DHT22;7105;43.616;1.434;2023-02-04T15:41:48;9.60;99.90
14061;DHT22;7105;43.616;1.434;2023-02-04T15:44:13;9.80;99.90
14061;DHT22;7105;43.616;1.434;2023-02-04T15:46:40;9.80;99.90
14061;DHT22;7105;43.616;1.434;2023-02-04T15:49:06;9.50;99.90
14061;DHT22;7105;43.616;1.434;2023-02-04T15:51:31;9.40;99.90
14061;DHT22;7105;43.616;1.434;2023-02-04T15:53:58;9.60;99.90
14061;DHT22;7105;43.616;1.434;2023-02-04T15:56:24;9.70;99.90
14061;DHT22;7105;43.616;1.434;2023-02-04T15:58:50;9.70;99.90
14061;DHT22;7105;43.616;1.434;2023-02-04T16:01:16;9.50;99.90
14061;DHT22;7105;43.616;1.434;2023-02-04T16:03:43;9.30;99.90
14061;DHT22;7105;43.616;1.434;2023-02-04T16:06:11;9.50;99.90
14061;DHT22;7105;43.616;1.434;2023-02-04T16:08:37;9.60;99.90
14061;DHT22;7105;43.616;1.434;2023-02-04T16:11:03;9.70;99.90
14061;DHT22;7105;43.616;1.434;2023-02-04T16:13:29;9.50;99.90
14061;DHT22;7105;43.616;1.434;2023-02-04T16:15:54;9.30;99.90
14061;DHT22;7105;43.616;1.434;2023-02-04T16:18:21;9.30;99.90
14061;DHT22;7105;43.616;1.434;2023-02-04T16:20:49;9.50;99.90
14061;DHT22;7105;43.616;1.434;2023-02-04T16:23:14;9.60;99.90
14061;DHT22;7105;43.616;1.434;2023-02-04T16:25:41;9.30;99.90
14061;DHT22;7105;43.616;1.434;2023-02-04T16:28:07;9.20;99.90